Time;durP1;ratioP1;P1;durP2;ratioP2;P2;SDS_P1;SDS_P2;PMS_P1;PMS_P2;Temp;Humidity;BMP_temperature;BMP_pressure;BME280_temperature;BME280_humidity;BME280_pressure;Samples;Min_cycle;Max_cycle;Signal;HPM_P1;HPM_P2
2021/12/10 00:01:32;;;;;;;41.88;20.63;;;5.20;99.90;;;;;;4993082;28;20126;-51
2021/12/10 00:03:59;;;;;;;47.83;21.73;;;5.20;99.90;;;;;;4974912;28;20104;-49
2021/12/10 00:06:33;;;;;;;39.60;20.45;;;5.20;99.90;;;;;;4991267;28;20054;-49
2021/12/10 00:09:07;;;;;;;40.45;19.40;;;5.20;99.90;;;;;;4993049;28;20038;-50
2021/12/10 00:11:51;;;;;;;44.70;21.27;;;5.20;99.90;;;;;;4993074;28;20042;-50
2021/12/10 00:14:18;;;;;;;48.08;20.52;;;5.20;99.90;;;;;;4981175;28;20508;-50
2021/12/10 00:16:44;;;;;;;50.15;19.95;;;5.20;99.90;;;;;;4992907;28;20043;-49
2021/12/10 00:21:48;;;;;;;39.67;20.02;;;5.20;99.90;;;;;;4992326;28;20462;-51
2021/12/10 00:24:16;;;;;;;37.05;20.35;;;5.20;99.90;;;;;;4979813;28;20077;-50
2021/12/10 00:26:42;;;;;;;41.40;19.83;;;5.20;99.90;;;;;;4973247;28;20054;-51
2021/12/10 00:29:10;;;;;;;36.17;18.15;;;5.30;99.90;;;;;;4975877;28;20513;-52
2021/12/10 00:31:49;;;;;;;33.88;17.55;;;5.20;99.90;;;;;;4991082;28;20403;-52
2021/12/10 00:34:23;;;;;;;38.85;18.73;;;5.20;99.90;;;;;;4979838;28;20044;-49
2021/12/10 00:36:52;;;;;;;39.67;17.20;;;5.20;99.90;;;;;;4991156;28;20038;-50
2021/12/10 00:39:22;;;;;;;31.05;16.48;;;5.20;99.90;;;;;;4992338;28;20125;-52
2021/12/10 00:41:49;;;;;;;29.95;17.20;;;5.20;99.90;;;;;;4992288;28;20042;-50
2021/12/10 00:44:15;;;;;;;36.83;18.08;;;5.20;99.90;;;;;;4979799;28;20415;-49
2021/12/10 00:46:40;;;;;;;32.40;16.33;;;5.20;99.90;;;;;;4985671;28;20045;-49
2021/12/10 00:49:08;;;;;;;40.28;16.30;;;5.30;99.90;;;;;;4992357;28;20118;-49
2021/12/10 00:51:35;;;;;;;35.25;15.07;;;5.20;99.90;;;;;;4992198;28;20049;-52
2021/12/10 00:54:02;;;;;;;27.80;15.93;;;5.20;99.90;;;;;;4991553;28;20113;-52
2021/12/10 00:56:28;;;;;;;24.92;14.15;;;5.20;99.90;;;;;;4991664;28;20042;-53
2021/12/10 00:58:53;;;;;;;35.58;15.15;;;5.20;99.90;;;;;;4991957;28;20522;-52
2021/12/10 01:01:24;;;;;;;34.95;16.17;;;5.20;99.90;;;;;;4991531;28;20078;-50
2021/12/10 01:03:56;;;;;;;33.78;14.15;;;5.20;99.90;;;;;;4983536;28;20053;-54
2021/12/10 01:06:23;;;;;;;30.80;15.40;;;5.20;99.90;;;;;;5003838;28;20043;-51
2021/12/10 01:08:54;;;;;;;29.70;12.52;;;5.10;99.90;;;;;;4972745;28;20042;-51
2021/12/10 01:11:26;;;;;;;27.93;14.60;;;5.20;99.90;;;;;;4972808;28;20067;-50
2021/12/10 01:13:57;;;;;;;33.20;14.13;;;5.10;99.90;;;;;;4974323;28;20089;-50
2021/12/10 01:24:54;;;;;;;26.98;14.13;;;5.10;99.90;;;;;;4977057;28;20439;-52
2021/12/10 01:27:30;;;;;;;23.35;13.68;;;5.20;99.90;;;;;;4973203;28;20487;-52
2021/12/10 01:29:58;;;;;;;27.80;13.57;;;5.10;99.90;;;;;;4991720;28;20511;-50
2021/12/10 01:32:31;;;;;;;25.35;13.07;;;5.10;99.90;;;;;;4991566;28;20046;-52
2021/12/10 01:34:57;;;;;;;28.83;13.90;;;5.10;99.90;;;;;;4986057;28;20518;-52
2021/12/10 01:37:24;;;;;;;34.08;13.82;;;5.10;99.90;;;;;;4975828;28;20154;-54
2021/12/10 01:39:51;;;;;;;32.95;14.68;;;5.10;99.90;;;;;;5003869;28;20074;-52
2021/12/10 01:42:37;;;;;;;33.80;14.18;;;5.10;99.90;;;;;;4987099;28;20053;-53
2021/12/10 01:45:16;;;;;;;27.13;14.20;;;5.10;99.90;;;;;;4972576;28;20061;-52
2021/12/10 01:47:42;;;;;;;27.13;13.77;;;5.10;99.90;;;;;;4972376;28;20046;-51
2021/12/10 01:50:08;;;;;;;32.28;15.27;;;5.10;99.90;;;;;;4972483;28;20039;-51
2021/12/10 01:52:34;;;;;;;34.05;13.50;;;5.10;99.90;;;;;;4972143;28;20042;-51
2021/12/10 01:55:03;;;;;;;32.80;14.60;;;5.10;99.90;;;;;;4988707;28;20038;-52
2021/12/10 01:57:33;;;;;;;29.80;14.90;;;5.20;99.90;;;;;;4990946;28;20525;-54
2021/12/10 01:59:58;;;;;;;30.08;14.68;;;5.10;99.90;;;;;;4990409;28;20101;-52
2021/12/10 02:02:28;;;;;;;31.67;15.27;;;5.10;99.90;;;;;;4991622;28;20034;-53
2021/12/10 02:04:55;;;;;;;23.67;13.73;;;5.00;99.90;;;;;;4993459;28;20049;-49
2021/12/10 02:07:24;;;;;;;27.55;15.10;;;5.10;99.90;;;;;;4995142;28;20121;-49
2021/12/10 02:09:50;;;;;;;30.17;13.77;;;5.10;99.90;;;;;;4993822;28;20034;-52
2021/12/10 02:12:22;;;;;;;24.38;14.18;;;5.10;99.90;;;;;;4996529;28;20376;-52
2021/12/10 02:14:58;;;;;;;33.90;13.68;;;5.10;99.90;;;;;;4966934;28;20053;-53
2021/12/10 02:17:26;;;;;;;28.15;13.48;;;5.10;99.90;;;;;;4995165;28;20052;-53
2021/12/10 02:19:52;;;;;;;22.40;12.93;;;5.10;99.90;;;;;;4994926;28;20046;-52
2021/12/10 02:22:17;;;;;;;24.52;13.20;;;5.10;99.90;;;;;;4993545;28;20042;-50
2021/12/10 02:24:43;;;;;;;24.15;12.82;;;5.10;99.90;;;;;;4979216;28;20133;-50
2021/12/10 02:27:10;;;;;;;26.40;12.85;;;5.00;99.90;;;;;;4994217;28;20034;-54
2021/12/10 02:29:38;;;;;;;24.67;13.20;;;5.10;99.90;;;;;;4968762;28;20039;-50
2021/12/10 02:32:08;;;;;;;20.70;11.30;;;5.00;99.90;;;;;;4979336;28;20518;-52
2021/12/10 02:34:34;;;;;;;21.40;11.88;;;5.00;99.90;;;;;;4992113;28;20109;-53
2021/12/10 02:37:00;;;;;;;27.63;12.20;;;5.10;99.90;;;;;;4994542;28;20073;-53
2021/12/10 02:39:27;;;;;;;18.77;10.32;;;5.10;99.90;;;;;;4994858;28;20503;-54
2021/12/10 02:41:53;;;;;;;27.73;12.95;;;5.10;99.90;;;;;;4994905;28;20042;-51
2021/12/10 02:44:28;;;;;;;28.40;11.52;;;5.10;99.90;;;;;;4984081;28;20050;-50
2021/12/10 02:46:54;;;;;;;23.02;11.45;;;5.10;99.90;;;;;;4988928;28;20096;-51
2021/12/10 02:49:20;;;;;;;22.55;11.13;;;5.10;99.90;;;;;;4994516;28;20495;-53
2021/12/10 02:51:46;;;;;;;23.40;10.93;;;5.00;99.90;;;;;;4994327;28;20484;-54
2021/12/10 02:54:16;;;;;;;23.90;11.35;;;5.00;99.90;;;;;;4984793;28;20122;-51
2021/12/10 02:56:42;;;;;;;23.73;12.02;;;4.90;99.90;;;;;;4989952;28;20065;-53
2021/12/10 02:59:08;;;;;;;25.25;12.40;;;4.90;99.90;;;;;;4994562;28;20042;-53
2021/12/10 03:01:41;;;;;;;24.95;12.02;;;5.00;99.90;;;;;;4994313;28;20526;-53
2021/12/10 03:04:08;;;;;;;25.30;11.18;;;4.90;99.90;;;;;;4985886;28;20101;-51
2021/12/10 03:06:40;;;;;;;21.17;11.07;;;4.90;99.90;;;;;;4974875;28;20411;-53
2021/12/10 03:09:06;;;;;;;26.77;11.52;;;4.90;99.90;;;;;;4974640;28;20046;-53
2021/12/10 03:11:35;;;;;;;18.33;11.55;;;4.90;99.90;;;;;;4990276;28;20050;-51
2021/12/10 03:14:06;;;;;;;25.70;11.95;;;4.90;99.90;;;;;;4984430;28;20034;-53
2021/12/10 03:16:33;;;;;;;25.50;11.80;;;4.90;99.90;;;;;;4975782;28;20045;-50
2021/12/10 03:18:58;;;;;;;23.30;12.15;;;4.80;99.90;;;;;;4993747;28;20507;-53
2021/12/10 03:21:24;;;;;;;21.52;11.48;;;4.80;99.90;;;;;;4976596;28;20057;-50
2021/12/10 03:23:50;;;;;;;19.75;11.02;;;4.80;99.90;;;;;;4988451;28;20132;-51
2021/12/10 03:26:20;;;;;;;25.23;11.85;;;4.80;99.90;;;;;;4974375;28;20538;-53
2021/12/10 03:28:48;;;;;;;21.27;10.65;;;4.70;99.90;;;;;;4974271;28;20547;-53
2021/12/10 03:31:15;;;;;;;20.63;12.00;;;4.70;99.90;;;;;;4974040;28;20123;-52
2021/12/10 03:33:41;;;;;;;19.35;11.35;;;4.70;99.90;;;;;;4977956;28;20075;-50
2021/12/10 03:36:09;;;;;;;22.52;11.48;;;4.60;99.90;;;;;;4993723;28;20184;-50
2021/12/10 03:38:36;;;;;;;23.42;11.93;;;4.60;99.90;;;;;;4992518;28;20070;-53
2021/12/10 03:41:03;;;;;;;19.65;11.05;;;4.60;99.90;;;;;;4993397;28;20042;-53
2021/12/10 03:43:29;;;;;;;23.98;11.23;;;4.50;99.90;;;;;;4991648;28;20046;-51
2021/12/10 03:45:56;;;;;;;18.80;11.05;;;4.50;99.90;;;;;;4978998;28;20525;-50
2021/12/10 03:48:27;;;;;;;18.65;11.18;;;4.50;99.90;;;;;;4993174;28;20080;-50
2021/12/10 03:50:54;;;;;;;19.50;10.45;;;4.50;99.90;;;;;;4993100;28;20076;-51
2021/12/10 03:53:20;;;;;;;21.38;10.60;;;4.40;99.90;;;;;;4992545;28;20070;-50
2021/12/10 03:55:47;;;;;;;24.70;11.13;;;4.40;99.90;;;;;;4993172;28;20073;-49
2021/12/10 03:58:14;;;;;;;18.40;10.60;;;4.30;99.90;;;;;;4992920;28;20049;-51
2021/12/10 04:00:48;;;;;;;24.20;10.75;;;4.40;99.90;;;;;;4993311;28;20271;-50
2021/12/10 04:03:15;;;;;;;22.50;11.48;;;4.30;99.90;;;;;;4993118;28;20042;-50
2021/12/10 04:05:42;;;;;;;20.73;11.32;;;4.30;99.90;;;;;;4992466;28;20117;-50
2021/12/10 04:08:08;;;;;;;19.90;10.80;;;4.40;99.90;;;;;;4993029;28;20136;-54
2021/12/10 04:10:34;;;;;;;21.00;12.05;;;4.30;99.90;;;;;;4992657;28;20062;-53
2021/12/10 04:13:00;;;;;;;22.42;11.80;;;4.20;99.90;;;;;;4992563;28;20038;-53
2021/12/10 04:15:28;;;;;;;21.25;11.77;;;4.20;99.90;;;;;;4992022;28;20049;-51
2021/12/10 04:17:56;;;;;;;23.75;13.10;;;4.20;99.90;;;;;;4991045;28;20042;-53
2021/12/10 04:20:24;;;;;;;25.35;13.32;;;4.10;99.90;;;;;;4991654;28;20082;-52
2021/12/10 04:22:50;;;;;;;25.33;13.60;;;4.00;99.90;;;;;;4992545;28;20038;-53
2021/12/10 04:25:19;;;;;;;30.00;14.93;;;4.00;99.90;;;;;;4977244;28;20408;-51
2021/12/10 04:27:47;;;;;;;30.77;14.57;;;4.00;99.90;;;;;;4991764;28;20043;-51
2021/12/10 04:30:13;;;;;;;27.42;15.20;;;3.90;99.90;;;;;;4992442;28;20039;-51
2021/12/10 04:32:40;;;;;;;28.67;14.27;;;4.00;99.90;;;;;;4992409;28;20045;-50
2021/12/10 04:35:07;;;;;;;26.08;14.18;;;3.90;99.90;;;;;;4978954;28;20066;-51
2021/12/10 04:37:32;;;;;;;25.77;14.48;;;3.80;99.90;;;;;;4973179;28;20415;-53
2021/12/10 04:40:02;;;;;;;30.00;14.60;;;3.80;99.90;;;;;;4972872;28;20068;-49
2021/12/10 04:42:28;;;;;;;29.02;15.30;;;3.80;99.90;;;;;;4973174;28;20101;-50
2021/12/10 04:44:57;;;;;;;24.63;14.57;;;3.80;99.90;;;;;;4966854;28;20050;-51
2021/12/10 04:47:24;;;;;;;26.33;14.70;;;3.70;99.90;;;;;;4992284;28;20086;-50
2021/12/10 04:49:50;;;;;;;26.08;13.95;;;3.70;99.90;;;;;;4974938;28;20030;-51
2021/12/10 04:52:16;;;;;;;28.60;14.90;;;3.70;99.90;;;;;;4992014;28;20048;-49
2021/12/10 04:54:42;;;;;;;26.33;15.23;;;3.70;99.90;;;;;;4981827;28;20042;-49
2021/12/10 04:57:08;;;;;;;24.92;14.15;;;3.60;99.90;;;;;;4971423;28;20085;-49
2021/12/10 04:59:36;;;;;;;27.48;14.65;;;3.60;99.90;;;;;;4971795;28;20054;-49
2021/12/10 05:02:06;;;;;;;28.00;15.15;;;3.50;99.90;;;;;;5004237;28;20141;-49
2021/12/10 05:04:32;;;;;;;23.95;14.73;;;3.50;99.90;;;;;;4981343;28;20038;-51
2021/12/10 05:06:59;;;;;;;26.65;14.10;;;3.50;99.90;;;;;;4992602;28;20042;-48
2021/12/10 05:09:25;;;;;;;21.55;12.48;;;3.60;99.90;;;;;;4992608;28;20178;-52
2021/12/10 05:11:52;;;;;;;21.98;13.85;;;3.50;99.90;;;;;;4992306;28;20031;-49
2021/12/10 05:14:19;;;;;;;23.30;13.02;;;3.50;99.90;;;;;;4992029;28;20554;-48
2021/12/10 05:16:48;;;;;;;20.63;12.85;;;3.40;99.90;;;;;;4992511;28;20050;-48
2021/12/10 05:19:17;;;;;;;22.23;12.95;;;3.50;99.90;;;;;;4992947;28;20046;-50
2021/12/10 05:21:46;;;;;;;25.00;12.98;;;3.40;99.90;;;;;;4992350;28;20507;-52
2021/12/10 05:24:12;;;;;;;24.80;13.70;;;3.40;99.90;;;;;;4987000;28;20046;-49
2021/12/10 05:26:38;;;;;;;23.52;12.98;;;3.50;99.90;;;;;;4990709;28;20511;-48
2021/12/10 05:29:05;;;;;;;22.83;12.63;;;3.40;99.90;;;;;;4992153;28;20053;-48
2021/12/10 05:31:32;;;;;;;20.15;12.73;;;3.50;99.90;;;;;;4992330;28;20042;-49
2021/12/10 05:33:57;;;;;;;22.30;14.02;;;3.50;99.90;;;;;;4988699;28;20071;-50
2021/12/10 05:36:23;;;;;;;24.10;13.43;;;3.40;99.90;;;;;;4973572;28;20039;-51
2021/12/10 05:38:49;;;;;;;24.58;12.70;;;3.40;99.90;;;;;;4973596;28;20046;-49
2021/12/10 05:41:15;;;;;;;21.70;12.82;;;3.40;99.90;;;;;;4995472;28;20491;-49
2021/12/10 05:43:42;;;;;;;23.60;13.13;;;3.30;99.90;;;;;;4995034;28;20118;-48
2021/12/10 05:46:09;;;;;;;21.35;12.57;;;3.30;99.90;;;;;;4995572;28;20450;-50
2021/12/10 05:48:35;;;;;;;20.73;12.63;;;3.30;99.90;;;;;;4978200;28;20039;-52
2021/12/10 05:51:01;;;;;;;22.13;12.43;;;3.30;99.90;;;;;;4995428;28;20038;-49
2021/12/10 05:53:27;;;;;;;20.60;12.82;;;3.30;99.90;;;;;;4995460;28;20042;-50
2021/12/10 05:55:53;;;;;;;21.95;12.82;;;3.30;99.90;;;;;;4993635;28;20525;-51
2021/12/10 05:58:19;;;;;;;22.25;13.52;;;3.30;99.90;;;;;;4995438;28;20038;-51
2021/12/10 06:00:51;;;;;;;22.25;13.30;;;3.20;99.90;;;;;;4994136;28;20046;-50
2021/12/10 06:03:17;;;;;;;;;;;3.10;99.90;;;;;;4995445;28;20531;-51
2021/12/10 06:05:44;;;;;;;19.83;12.38;;;3.20;99.90;;;;;;4995413;28;20033;-51
2021/12/10 06:08:11;;;;;;;21.52;12.88;;;3.20;99.90;;;;;;4995013;28;20038;-52
2021/12/10 06:10:37;;;;;;;19.00;11.68;;;3.20;99.90;;;;;;4988920;28;20035;-52
2021/12/10 06:13:04;;;;;;;21.67;12.00;;;3.30;99.90;;;;;;4975369;28;20125;-50
2021/12/10 06:15:30;;;;;;;18.75;10.75;;;3.20;99.90;;;;;;4975455;28;20122;-51
2021/12/10 06:17:56;;;;;;;21.40;11.85;;;3.20;99.90;;;;;;4975308;28;20126;-50
2021/12/10 06:20:26;;;;;;;19.08;11.32;;;3.10;99.90;;;;;;4979358;28;20034;-48
2021/12/10 06:22:53;;;;;;;21.38;11.90;;;3.20;99.90;;;;;;4992810;28;20046;-52
2021/12/10 06:25:19;;;;;;;20.45;11.48;;;3.20;99.90;;;;;;4994563;28;20069;-52
2021/12/10 06:27:45;;;;;;;27.55;12.65;;;3.20;99.90;;;;;;4994284;28;20050;-52
2021/12/10 06:30:16;;;;;;;22.60;12.27;;;3.10;99.90;;;;;;4992506;28;20030;-51
2021/12/10 06:32:45;;;;;;;22.45;12.52;;;3.00;99.90;;;;;;4974969;28;20121;-52
2021/12/10 06:35:12;;;;;;;21.08;12.88;;;3.00;99.90;;;;;;4974947;28;20039;-52
2021/12/10 06:37:39;;;;;;;22.92;13.13;;;3.00;99.90;;;;;;4993659;28;20046;-50
2021/12/10 06:40:08;;;;;;;24.83;14.05;;;2.90;99.90;;;;;;4993703;28;20042;-48
2021/12/10 06:42:34;;;;;;;17.98;10.80;;;2.90;99.90;;;;;;4990419;28;20396;-48
2021/12/10 06:45:00;;;;;;;20.70;12.38;;;2.90;99.90;;;;;;4992814;28;20109;-48
2021/12/10 06:47:25;;;;;;;17.15;10.68;;;2.90;99.90;;;;;;4991785;28;20476;-50
2021/12/10 06:49:51;;;;;;;23.02;11.85;;;2.90;99.90;;;;;;4991092;28;20113;-49
2021/12/10 06:52:16;;;;;;;20.63;11.20;;;3.00;99.90;;;;;;4991303;28;20063;-50
2021/12/10 06:54:43;;;;;;;19.70;10.35;;;2.80;99.90;;;;;;4994098;28;20101;-48
2021/12/10 06:57:09;;;;;;;19.10;10.75;;;2.80;99.90;;;;;;4994135;28;20104;-49
2021/12/10 06:59:34;;;;;;;16.95;10.48;;;2.80;99.90;;;;;;4994515;28;20619;-48
2021/12/10 07:02:00;;;;;;;17.65;11.07;;;2.80;99.90;;;;;;4983361;28;20077;-48
2021/12/10 07:04:25;;;;;;;17.13;9.80;;;2.80;99.90;;;;;;4993924;28;20129;-49
2021/12/10 07:06:53;;;;;;;20.35;11.50;;;2.70;99.90;;;;;;4992982;28;20050;-49
2021/12/10 07:09:22;;;;;;;18.85;10.02;;;2.70;99.90;;;;;;4992616;28;20073;-49
2021/12/10 07:11:49;;;;;;;19.95;10.18;;;2.70;99.90;;;;;;4993778;28;20403;-51
2021/12/10 07:14:15;;;;;;;19.35;9.70;;;2.70;99.90;;;;;;4992947;28;20042;-53
2021/12/10 07:16:41;;;;;;;20.02;10.75;;;2.70;99.90;;;;;;4993112;28;20030;-52
2021/12/10 07:19:07;;;;;;;18.70;9.43;;;2.60;99.90;;;;;;4994105;28;20049;-49
2021/12/10 07:21:34;;;;;;;20.27;11.02;;;2.60;99.90;;;;;;4982485;28;20454;-50
2021/12/10 07:24:03;;;;;;;20.23;11.23;;;2.60;99.90;;;;;;4974374;28;20121;-52
2021/12/10 07:26:30;;;;;;;17.65;9.68;;;2.60;99.90;;;;;;4973272;28;20411;-51
2021/12/10 07:28:57;;;;;;;17.15;9.35;;;2.50;99.90;;;;;;4974227;28;20039;-50
2021/12/10 07:31:23;;;;;;;15.80;9.15;;;2.50;99.90;;;;;;4984317;28;20091;-52
2021/12/10 07:33:49;;;;;;;18.35;9.48;;;2.60;99.90;;;;;;4993772;28;20556;-49
2021/12/10 07:36:15;;;;;;;18.40;9.50;;;2.50;99.90;;;;;;4993834;28;20554;-52
2021/12/10 07:38:41;;;;;;;13.70;8.60;;;2.50;99.90;;;;;;4991836;28;20057;-50
2021/12/10 07:41:07;;;;;;;15.32;8.55;;;2.50;99.90;;;;;;4976362;28;20426;-52
2021/12/10 07:43:34;;;;;;;15.15;8.88;;;2.50;99.90;;;;;;4973954;28;20046;-48
2021/12/10 07:46:00;;;;;;;15.70;8.30;;;2.50;99.90;;;;;;4974203;28;20074;-51
2021/12/10 07:48:27;;;;;;;16.38;8.57;;;2.50;99.90;;;;;;4974075;28;20035;-49
2021/12/10 07:50:58;;;;;;;16.02;8.63;;;2.50;99.90;;;;;;4992328;28;20109;-52
2021/12/10 07:53:26;;;;;;;13.73;8.73;;;2.60;99.90;;;;;;4991857;28;20031;-49
2021/12/10 07:55:52;;;;;;;15.27;8.88;;;2.50;99.90;;;;;;4993226;28;20434;-52
2021/12/10 07:58:18;;;;;;;18.40;9.00;;;2.50;99.90;;;;;;4993462;28;20042;-52
2021/12/10 08:00:47;;;;;;;13.60;7.47;;;2.50;99.90;;;;;;4976102;28;20043;-50
2021/12/10 08:03:13;;;;;;;16.77;8.90;;;2.50;99.90;;;;;;4973214;28;20114;-52
2021/12/10 08:05:40;;;;;;;13.15;8.35;;;2.60;99.90;;;;;;4973803;28;20130;-51
2021/12/10 08:08:07;;;;;;;15.27;8.52;;;2.60;99.90;;;;;;4973480;28;20049;-52
2021/12/10 08:10:33;;;;;;;13.57;7.70;;;2.50;99.90;;;;;;4988295;28;20074;-52
2021/12/10 08:15:29;;;;;;;17.90;9.55;;;2.60;99.90;;;;;;5008291;28;20046;-48
2021/12/10 08:17:55;;;;;;;16.35;8.82;;;2.60;99.90;;;;;;5006384;28;20051;-48
2021/12/10 08:20:23;;;;;;;18.05;8.88;;;2.60;99.90;;;;;;4992704;28;20410;-48
2021/12/10 08:22:50;;;;;;;18.05;8.23;;;2.60;99.90;;;;;;4992285;28;20081;-48
2021/12/10 08:25:19;;;;;;;16.95;8.32;;;2.60;99.90;;;;;;4992364;28;20060;-48
2021/12/10 08:27:45;;;;;;;15.43;8.60;;;2.60;99.90;;;;;;4992212;28;20134;-48
2021/12/10 08:30:14;;;;;;;17.08;8.77;;;2.60;99.90;;;;;;4956722;28;20051;-48
2021/12/10 08:32:41;;;;;;;17.95;8.05;;;2.60;99.90;;;;;;4972843;28;20414;-48
2021/12/10 08:35:11;;;;;;;14.75;8.35;;;2.70;99.90;;;;;;4972958;28;20114;-48
2021/12/10 08:37:37;;;;;;;17.58;8.73;;;2.70;99.90;;;;;;4973043;28;20043;-47
2021/12/10 08:40:05;;;;;;;15.93;8.50;;;2.70;99.90;;;;;;4990432;28;20125;-48
2021/12/10 08:42:31;;;;;;;15.52;8.20;;;2.70;99.90;;;;;;4991688;28;20060;-47
2021/12/10 08:44:57;;;;;;;18.90;8.63;;;2.70;99.90;;;;;;4992310;28;20042;-48
2021/12/10 08:47:22;;;;;;;15.02;8.70;;;2.70;99.90;;;;;;4984110;28;20034;-47
2021/12/10 08:49:48;;;;;;;15.35;8.23;;;2.80;99.90;;;;;;4972778;28;20117;-48
2021/12/10 08:52:15;;;;;;;13.57;8.10;;;2.70;99.90;;;;;;4972375;28;20050;-47
2021/12/10 08:54:41;;;;;;;15.93;7.88;;;2.70;99.90;;;;;;4972715;28;20042;-48
2021/12/10 08:57:08;;;;;;;13.50;6.32;;;2.80;99.90;;;;;;4977929;28;20069;-52
2021/12/10 08:59:36;;;;;;;17.02;7.80;;;2.90;99.90;;;;;;4992167;28;20061;-49
2021/12/10 09:02:04;;;;;;;15.65;7.95;;;2.80;99.90;;;;;;4991804;28;20046;-49
2021/12/10 09:04:32;;;;;;;13.63;7.63;;;2.80;99.90;;;;;;4991725;28;20038;-52
2021/12/10 09:07:03;;;;;;;15.55;8.02;;;2.80;99.90;;;;;;4988894;28;20122;-50
2021/12/10 09:09:30;;;;;;;16.35;8.15;;;2.90;99.90;;;;;;4992317;28;20129;-47
2021/12/10 09:12:00;;;;;;;16.40;8.15;;;2.90;99.90;;;;;;4991684;28;20084;-48
2021/12/10 09:14:31;;;;;;;13.52;7.57;;;2.90;99.90;;;;;;4979296;28;20170;-52
2021/12/10 09:17:00;;;;;;;13.73;7.05;;;3.00;99.90;;;;;;4977027;28;20051;-48
2021/12/10 09:19:27;;;;;;;16.02;7.85;;;3.00;99.90;;;;;;4977469;28;20038;-52
2021/12/10 09:21:53;;;;;;;15.30;7.03;;;3.00;99.90;;;;;;4982828;28;20117;-52
2021/12/10 09:24:21;;;;;;;15.43;7.50;;;3.10;99.90;;;;;;4995882;28;20193;-51
2021/12/10 09:26:53;;;;;;;13.80;7.53;;;3.20;99.90;;;;;;4978192;28;20121;-49
2021/12/10 09:29:20;;;;;;;13.70;7.13;;;3.20;99.90;;;;;;4995161;28;20050;-50
2021/12/10 09:31:46;;;;;;;12.27;7.10;;;3.20;99.90;;;;;;4982170;28;20039;-49
2021/12/10 09:34:13;;;;;;;13.40;7.07;;;3.30;99.90;;;;;;4983501;28;20042;-50
2021/12/10 09:36:41;;;;;;;12.82;7.15;;;3.30;99.90;;;;;;4983579;28;20437;-51
2021/12/10 09:39:08;;;;;;;13.82;6.32;;;3.30;99.90;;;;;;4983096;28;20043;-50
2021/12/10 09:41:34;;;;;;;11.52;6.53;;;3.30;99.90;;;;;;4982876;28;20060;-52
2021/12/10 09:44:00;;;;;;;15.82;7.13;;;3.40;99.90;;;;;;4986892;28;20438;-52
2021/12/10 09:46:26;;;;;;;13.10;6.38;;;3.40;99.90;;;;;;4981982;28;20034;-52
2021/12/10 09:48:52;;;;;;;13.48;7.00;;;3.40;99.90;;;;;;4987071;28;20038;-48
2021/12/10 09:51:23;;;;;;;15.18;6.45;;;3.50;99.90;;;;;;4982845;28;20034;-52
2021/12/10 09:53:53;;;;;;;14.50;6.40;;;3.60;99.90;;;;;;4988780;28;20066;-51
2021/12/10 09:56:20;;;;;;;11.40;6.40;;;3.60;99.90;;;;;;4986871;28;20034;-51
2021/12/10 09:58:46;;;;;;;15.02;6.95;;;3.70;99.90;;;;;;4979636;28;20118;-51
2021/12/10 10:01:22;;;;;;;12.48;6.78;;;3.70;99.90;;;;;;4983189;28;20034;-50
2021/12/10 10:03:51;;;;;;;14.02;6.32;;;3.80;99.90;;;;;;4981578;28;20049;-50
2021/12/10 10:06:18;;;;;;;11.57;6.10;;;3.80;99.90;;;;;;4984798;28;20054;-51
2021/12/10 10:08:45;;;;;;;14.10;6.63;;;3.80;99.90;;;;;;4990127;28;20046;-48
2021/12/10 10:11:18;;;;;;;11.68;5.93;;;3.80;99.90;;;;;;4975127;28;20035;-50
2021/12/10 10:13:46;;;;;;;10.23;5.57;;;3.90;99.90;;;;;;4982748;28;20109;-51
2021/12/10 10:16:13;;;;;;;12.02;6.25;;;4.00;99.90;;;;;;4979707;28;20051;-49
2021/12/10 10:18:41;;;;;;;9.38;5.75;;;4.00;99.90;;;;;;4965817;28;20045;-50
2021/12/10 10:21:13;;;;;;;11.38;6.13;;;4.10;99.90;;;;;;4993324;28;20034;-51
2021/12/10 10:23:41;;;;;;;11.65;5.60;;;4.10;99.90;;;;;;4987736;28;20041;-51
2021/12/10 10:26:10;;;;;;;16.30;6.38;;;4.10;99.90;;;;;;4981779;28;20251;-52
2021/12/10 10:28:37;;;;;;;12.85;5.93;;;4.20;99.90;;;;;;4989888;28;20121;-52
2021/12/10 10:31:09;;;;;;;11.25;6.07;;;4.20;99.90;;;;;;4987061;28;20125;-51
2021/12/10 10:33:37;;;;;;;11.05;5.93;;;4.20;99.90;;;;;;4988703;28;20038;-52
2021/12/10 10:36:11;;;;;;;10.00;4.90;;;4.30;99.90;;;;;;4986347;28;20413;-50
2021/12/10 10:38:37;;;;;;;11.25;5.45;;;4.40;99.90;;;;;;4990237;28;20041;-52
2021/12/10 10:41:09;;;;;;;11.52;5.10;;;4.50;99.90;;;;;;4990793;28;20034;-51
2021/12/10 10:43:36;;;;;;;12.15;5.57;;;4.40;99.90;;;;;;4984784;28;20038;-48
2021/12/10 10:46:02;;;;;;;9.82;5.25;;;4.40;99.90;;;;;;4985174;28;20151;-52
2021/12/10 10:48:28;;;;;;;13.07;5.80;;;4.40;99.90;;;;;;4980405;28;20042;-49
2021/12/10 10:51:02;;;;;;;12.73;5.88;;;4.40;99.90;;;;;;4976762;28;20503;-51
2021/12/10 10:53:33;;;;;;;10.45;5.68;;;4.50;99.90;;;;;;4983487;28;20034;-51
2021/12/10 10:56:04;;;;;;;9.07;5.20;;;4.50;99.90;;;;;;4985869;28;20070;-52
2021/12/10 10:58:35;;;;;;;10.90;5.70;;;4.50;99.90;;;;;;4982285;28;20056;-52
2021/12/10 11:01:15;;;;;;;11.60;5.23;;;4.60;99.90;;;;;;4987505;28;20043;-52
2021/12/10 11:03:48;;;;;;;8.98;5.10;;;4.70;99.90;;;;;;4978062;28;20031;-52
2021/12/10 11:06:45;;;;;;;11.75;5.18;;;4.80;99.90;;;;;;4987009;28;20046;-51
2021/12/10 11:09:15;;;;;;;10.05;5.32;;;4.70;99.90;;;;;;4989923;28;20038;-50
2021/12/10 11:11:49;;;;;;;9.48;4.97;;;4.80;99.90;;;;;;4993761;28;20034;-48
2021/12/10 11:14:20;;;;;;;10.07;5.22;;;4.90;99.90;;;;;;4993398;28;20046;-52
2021/12/10 11:16:51;;;;;;;14.82;5.35;;;4.90;99.90;;;;;;4976368;28;20042;-52
2021/12/10 11:19:25;;;;;;;11.43;5.13;;;4.90;99.90;;;;;;4993886;28;20092;-51
2021/12/10 11:21:53;;;;;;;10.48;4.60;;;4.90;99.90;;;;;;4974964;28;20043;-50
2021/12/10 11:24:38;;;;;;;9.23;4.68;;;4.90;99.90;;;;;;4978911;28;20038;-51
2021/12/10 11:27:09;;;;;;;8.05;4.80;;;4.90;99.90;;;;;;4993835;28;20089;-52
2021/12/10 11:29:50;;;;;;;9.10;4.88;;;5.00;99.90;;;;;;4993283;28;20038;-51
2021/12/10 11:32:47;;;;;;;14.52;5.15;;;5.10;99.90;;;;;;4993580;28;20034;-52
2021/12/10 11:35:30;;;;;;;7.63;4.43;;;5.10;99.90;;;;;;4991908;28;20050;-52
2021/12/10 11:38:15;;;;;;;9.70;4.72;;;5.10;99.90;;;;;;4976281;28;20043;-52
2021/12/10 11:40:49;;;;;;;11.65;4.68;;;5.10;99.90;;;;;;4988987;28;20057;-51
2021/12/10 11:48:39;;;;;;;15.02;3.70;;;5.10;99.90;;;;;;4981975;28;20047;-51
2021/12/10 11:51:19;;;;;;;11.75;4.07;;;5.10;99.90;;;;;;4977061;28;20117;-50
2021/12/10 11:53:54;;;;;;;11.45;4.20;;;5.20;99.90;;;;;;4986620;28;20042;-48
2021/12/10 11:56:38;;;;;;;8.90;4.07;;;5.10;99.90;;;;;;4993091;28;20042;-52
2021/12/10 11:59:08;;;;;;;13.55;4.57;;;5.10;99.90;;;;;;4986636;28;20180;-55
2021/12/10 12:01:45;;;;;;;13.20;4.45;;;5.20;99.90;;;;;;4983733;28;20050;-55
2021/12/10 12:04:19;;;;;;;8.48;3.60;;;5.20;99.90;;;;;;4992114;28;20069;-54
2021/12/10 12:06:48;;;;;;;9.65;3.85;;;5.20;99.80;;;;;;4991550;28;20122;-55
2021/12/10 12:09:31;;;;;;;7.60;3.90;;;5.30;99.90;;;;;;4993097;28;20042;-55
2021/12/10 12:12:13;;;;;;;11.80;4.00;;;5.20;99.90;;;;;;4986205;28;20035;-55
2021/12/10 12:14:44;;;;;;;7.93;3.50;;;5.20;99.90;;;;;;4956313;28;20038;-55
2021/12/10 12:17:39;;;;;;;11.07;3.97;;;5.20;99.90;;;;;;4973305;28;20554;-55
2021/12/10 12:20:28;;;;;;;8.25;3.20;;;5.20;99.90;;;;;;4973444;28;20454;-52
2021/12/10 12:25:56;;;;;;;10.40;3.72;;;5.30;99.60;;;;;;4976050;28;20517;-51
2021/12/10 12:28:24;;;;;;;9.23;4.13;;;5.30;99.90;;;;;;4992744;28;20057;-55
2021/12/10 12:30:57;;;;;;;12.70;4.20;;;5.30;99.90;;;;;;4992514;28;20049;-54
2021/12/10 12:33:25;;;;;;;8.18;3.60;;;5.30;99.90;;;;;;4983102;28;20043;-50
2021/12/10 12:35:52;;;;;;;8.73;3.83;;;5.40;99.90;;;;;;4991694;28;20092;-51
2021/12/10 12:38:27;;;;;;;8.00;3.60;;;5.40;99.90;;;;;;4983571;28;20392;-53
2021/12/10 12:41:15;;;;;;;7.07;3.65;;;5.40;99.00;;;;;;4986250;28;20080;-52
2021/12/10 12:43:42;;;;;;;7.35;3.70;;;5.50;99.00;;;;;;4992547;28;20086;-53
2021/12/10 12:46:11;;;;;;;11.20;3.70;;;5.50;99.40;;;;;;5002037;28;20052;-54
2021/12/10 12:48:54;;;;;;;11.30;3.60;;;5.40;99.40;;;;;;4999444;28;20161;-55
2021/12/10 12:51:21;;;;;;;10.63;3.58;;;5.50;99.90;;;;;;4997686;28;20556;-49
2021/12/10 12:53:49;;;;;;;9.65;3.55;;;5.50;98.40;;;;;;4990802;28;20043;-53
2021/12/10 12:56:15;;;;;;;11.57;3.45;;;5.60;98.10;;;;;;4989005;28;20046;-52
2021/12/10 12:58:54;;;;;;;14.32;3.88;;;5.60;98.20;;;;;;4979572;28;20461;-49
2021/12/10 13:01:26;;;;;;;8.27;3.67;;;5.60;98.10;;;;;;4982817;28;20070;-51
2021/12/10 13:03:58;;;;;;;9.18;3.65;;;5.60;99.20;;;;;;4984124;28;20462;-52
2021/12/10 13:06:56;;;;;;;8.20;3.20;;;5.60;99.80;;;;;;4980700;28;20511;-52
2021/12/10 13:09:25;;;;;;;13.05;3.70;;;5.60;98.70;;;;;;4979253;28;20057;-51
2021/12/10 13:12:09;;;;;;;10.02;3.58;;;5.60;98.80;;;;;;4982390;28;20042;-51
2021/12/10 13:14:57;;;;;;;9.45;3.42;;;5.60;98.30;;;;;;4979135;28;20049;-53